Česky Dansk Deutsch English Español Suomi Français Magyar Italiano Nederlands norsk Polski Português svenska Türkçe

 

Het Weer

Itaituba (Brazilië)

00:15, 14 augustus 2016 (GMT)

NWNNE
WE
SWSSE
Home            
Itaituba Santarem-Aeroporto Jacareacanga Altamira Manaus Aeroporto Eduardo Gomes International Cachimbo Manicore Alta Floresta Aeroporto Carajas / Maraba Tucurui Maraba Macapa Barcelos Conceicao Do Araguaia Belem Aeroporto Boa Vista, Boa Vista Intl Imperatriz Tefe Maranhao / Carolina Airport Porto Velho Aeroporto Oiapoque Vilhena Aeroporto

Om een weerknop op uw website of weblog te plaatsen, copieer onderstaande code en plak die in uw pagina. In het eerste vakje staat HTML-code, in het tweede vakje UBB-code.


Add to Google

Details

Visibility:Greater than 10000 m, 10 km, 32800 ft, 6.2 miles
Clouds:CAVOC
Temperature:26°C, 79°F
Gefühlte Temperatur:28°C, 83°F
Dew-point:24°C, 75°F
Atmospheric pressure:1011 hPa, 758.3 mmHg, 29.85 inHg, 0.998 atm
Relative humidity:88.8 %
METAR:SBIH 140015Z 00000KT CAVOK 26/24 Q1011

Snelkoppelingen

Actuele weersinformatie van de hele wereld. Voeg locaties toe met het plus (+) symbool. Deze snelkoppelingen kunnen worden toegevoegd aan Google.

Lid van de Technetium groep

website free tracking
StatCounter NetStat W3C Validator

27-05-2018 12:03:40
astro.technetium.be money.technetium.be phote.technetium.be tafeltennistafel.technetium.be www.ligfiets.net